createdAt,value
2018-10-21T00:01:04.093Z,0
2018-10-21T00:02:04.396Z,0
2018-10-21T00:03:04.719Z,0
2018-10-21T00:04:04.295Z,0
2018-10-21T00:05:25.875Z,0
2018-10-21T00:07:08.637Z,0
2018-10-21T00:08:30.377Z,0
2018-10-21T00:09:30.658Z,0
2018-10-21T00:10:31.047Z,0
2018-10-21T00:11:30.693Z,0
2018-10-21T00:12:31.173Z,0
2018-10-21T00:13:30.614Z,0
2018-10-21T00:14:52.368Z,0
2018-10-21T00:15:52.789Z,0
2018-10-21T00:16:53.178Z,0
2018-10-21T00:17:52.457Z,0
2018-10-21T00:18:52.982Z,0
2018-10-21T00:19:52.376Z,0
2018-10-21T00:21:34.636Z,0
2018-10-21T00:22:35.394Z,0
2018-10-21T00:23:34.965Z,0
2018-10-21T00:24:35.396Z,0
2018-10-21T00:25:34.850Z,0
2018-10-21T00:26:35.327Z,0
2018-10-21T00:27:35.628Z,0
2018-10-21T00:28:34.953Z,0
2018-10-21T00:29:56.579Z,0
2018-10-21T00:30:57.055Z,0
2018-10-21T00:31:56.770Z,0
2018-10-21T00:32:57.285Z,0
2018-10-21T00:33:56.645Z,0
2018-10-21T00:34:56.976Z,0
2018-10-21T00:35:57.291Z,0
2018-10-21T00:36:56.792Z,0
2018-10-21T00:38:18.496Z,0
2018-10-21T00:39:39.908Z,0
2018-10-21T00:41:24.127Z,0
2018-10-21T00:42:24.502Z,0
2018-10-21T00:43:25.115Z,0
2018-10-21T00:44:24.513Z,0
2018-10-21T00:46:07.159Z,0
2018-10-21T00:47:07.457Z,0
2018-10-21T00:48:07.601Z,0
2018-10-21T00:49:08.086Z,0
2018-10-21T00:50:07.702Z,0
2018-10-21T00:51:08.254Z,0
2018-10-21T00:52:07.754Z,0
2018-10-21T00:53:07.301Z,0
2018-10-21T00:54:29.822Z,0
2018-10-21T00:55:29.262Z,0
2018-10-21T00:56:29.796Z,0
2018-10-21T00:57:50.473Z,0
2018-10-21T00:59:12.457Z,0
2018-10-21T01:00:12.896Z,0
2018-10-21T01:01:49.595Z,0
2018-10-21T01:02:38.588Z,0
2018-10-21T01:03:37.827Z,0
2018-10-21T01:04:58.407Z,0
2018-10-21T01:05:58.602Z,0
2018-10-21T01:07:20.613Z,0
2018-10-21T01:08:21.009Z,0
2018-10-21T01:09:21.326Z,0
2018-10-21T01:10:20.680Z,0
2018-10-21T01:11:21.047Z,0
2018-10-21T01:12:20.677Z,0
2018-10-21T01:13:20.996Z,0
2018-10-21T01:14:42.519Z,0
2018-10-21T01:15:42.944Z,0
2018-10-21T01:17:03.453Z,0
2018-10-21T01:18:04.106Z,0
2018-10-21T01:19:24.596Z,0
2018-10-21T01:20:25.171Z,0
2018-10-21T01:21:25.648Z,0
2018-10-21T01:22:24.992Z,0
2018-10-21T01:23:25.409Z,0
2018-10-21T01:24:24.745Z,0
2018-10-21T01:25:25.207Z,0
2018-10-21T01:26:24.646Z,0
2018-10-21T01:27:24.789Z,0
2018-10-21T01:28:25.308Z,0
2018-10-21T01:29:24.893Z,0
2018-10-21T01:30:25.354Z,0
2018-10-21T01:31:24.629Z,0
2018-10-21T01:32:25.036Z,0
2018-10-21T01:33:25.516Z,0
2018-10-21T01:34:25.096Z,0
2018-10-21T01:35:25.443Z,0
2018-10-21T01:36:25.120Z,0
2018-10-21T01:37:24.932Z,0
2018-10-21T01:38:25.676Z,0
2018-10-21T01:39:25.098Z,0
2018-10-21T01:40:25.474Z,0
2018-10-21T01:41:25.029Z,0
2018-10-21T01:42:46.733Z,0
2018-10-21T01:43:47.062Z,0
2018-10-21T01:44:47.382Z,0
2018-10-21T01:45:46.967Z,0
2018-10-21T01:46:47.311Z,0
2018-10-21T01:48:09.027Z,0
2018-10-21T01:49:09.482Z,0
2018-10-21T01:50:09.104Z,0
2018-10-21T01:51:30.681Z,0
2018-10-21T01:52:52.354Z,0
2018-10-21T01:53:52.877Z,0
2018-10-21T01:54:53.327Z,0
2018-10-21T01:55:52.967Z,0
2018-10-21T01:56:52.519Z,0
2018-10-21T01:58:14.304Z,0
2018-10-21T01:59:57.250Z,0
2018-10-21T02:00:57.773Z,0
2018-10-21T02:01:57.131Z,0
2018-10-21T02:02:57.557Z,0
2018-10-21T02:03:58.082Z,0
2018-10-21T02:05:29.884Z,0
2018-10-21T02:06:30.557Z,0
2018-10-21T02:07:30.128Z,0
2018-10-21T02:08:30.549Z,0
2018-10-21T02:10:35.483Z,0
2018-10-21T02:11:35.008Z,0
2018-10-21T02:12:35.574Z,0
2018-10-21T02:13:35.178Z,0
2018-10-21T02:14:35.551Z,0
2018-10-21T02:15:35.118Z,0
2018-10-21T02:16:35.673Z,0
2018-10-21T02:17:35.000Z,0
2018-10-21T02:18:35.410Z,0
2018-10-21T02:19:34.946Z,0
2018-10-21T02:20:35.338Z,0
2018-10-21T02:21:34.769Z,0
2018-10-21T02:22:47.036Z,0
2018-10-21T02:24:08.508Z,0
2018-10-21T02:25:51.383Z,0
2018-10-21T02:26:51.671Z,0
2018-10-21T02:27:52.049Z,0
2018-10-21T02:28:51.561Z,0
2018-10-21T02:29:51.918Z,0
2018-10-21T02:30:52.281Z,0
2018-10-21T02:31:51.449Z,0
2018-10-21T02:32:52.024Z,0
2018-10-21T02:33:51.638Z,0
2018-10-21T02:34:52.011Z,0
2018-10-21T02:36:13.407Z,0
2018-10-21T02:37:13.551Z,0
2018-10-21T02:38:14.065Z,0
2018-10-21T02:39:13.503Z,0
2018-10-21T02:40:56.325Z,0
2018-10-21T02:41:57.452Z,0
2018-10-21T02:42:56.630Z,0
2018-10-21T02:44:18.083Z,0
2018-10-21T02:45:18.543Z,0
2018-10-21T02:46:18.837Z,0
2018-10-21T02:47:39.345Z,0
2018-10-21T02:49:00.519Z,0
2018-10-21T02:50:00.865Z,0
2018-10-21T02:51:01.161Z,0
2018-10-21T02:52:00.711Z,0
2018-10-21T02:53:01.325Z,0
2018-10-21T02:54:00.827Z,0
2018-10-21T02:55:22.449Z,0
2018-10-21T02:56:22.940Z,0
2018-10-21T02:57:22.439Z,0
2018-10-21T02:58:22.906Z,0
2018-10-21T02:59:43.651Z,0
2018-10-21T03:01:26.204Z,0
2018-10-21T03:02:26.834Z,0
2018-10-21T03:03:48.258Z,0
2018-10-21T03:04:48.680Z,0
2018-10-21T03:05:48.952Z,0
2018-10-21T03:06:48.655Z,0
2018-10-21T03:07:49.008Z,0
2018-10-21T03:08:48.190Z,0
2018-10-21T03:09:48.506Z,0
2018-10-21T03:10:49.192Z,0
2018-10-21T03:11:48.723Z,0
2018-10-21T03:12:49.043Z,0
2018-10-21T03:13:48.488Z,0
2018-10-21T03:14:48.946Z,0
2018-10-21T03:15:48.349Z,0
2018-10-21T03:16:48.745Z,0
2018-10-21T03:17:48.340Z,0
2018-10-21T03:18:48.515Z,0
2018-10-21T03:19:48.794Z,0
2018-10-21T03:20:48.886Z,0
2018-10-21T03:21:48.289Z,0
2018-10-21T03:22:18.265Z,0
2018-10-21T03:23:18.666Z,0
2018-10-21T03:24:19.220Z,0
2018-10-21T03:25:18.842Z,0
2018-10-21T03:26:18.371Z,0
2018-10-21T03:27:18.980Z,0
2018-10-21T03:28:18.554Z,0
2018-10-21T03:29:40.231Z,0
2018-10-21T03:30:40.663Z,0
2018-10-21T03:31:41.004Z,0
2018-10-21T03:32:40.566Z,0
2018-10-21T03:33:41.202Z,0
2018-10-21T03:34:40.999Z,0
2018-10-21T03:36:01.714Z,0
2018-10-21T03:37:02.232Z,0
2018-10-21T03:38:01.816Z,0
2018-10-21T03:39:02.420Z,0
2018-10-21T03:40:01.820Z,0
2018-10-21T03:41:23.210Z,0
2018-10-21T03:42:23.914Z,0
2018-10-21T03:43:23.346Z,0
2018-10-21T03:44:44.907Z,0
2018-10-21T03:46:06.236Z,0
2018-10-21T03:47:06.574Z,0
2018-10-21T03:48:06.834Z,0
2018-10-21T03:49:06.268Z,0
2018-10-21T03:50:06.749Z,0
2018-10-21T03:51:07.181Z,0
2018-10-21T03:52:06.605Z,0
2018-10-21T03:53:51.162Z,0
2018-10-21T03:54:51.418Z,0
2018-10-21T03:55:51.668Z,0
2018-10-21T03:56:52.131Z,0
2018-10-21T03:57:51.315Z,0
2018-10-21T03:58:51.745Z,0
2018-10-21T04:00:13.100Z,0
2018-10-21T04:01:34.514Z,0
2018-10-21T04:02:34.734Z,0
2018-10-21T04:03:56.161Z,0
2018-10-21T04:04:56.391Z,0
2018-10-21T04:05:56.882Z,0
2018-10-21T04:06:56.108Z,0
2018-10-21T04:07:56.189Z,0
2018-10-21T04:08:56.219Z,0
2018-10-21T04:09:56.564Z,0
2018-10-21T04:10:56.871Z,0
2018-10-21T04:12:17.187Z,0
2018-10-21T04:13:17.541Z,0
2018-10-21T04:14:17.706Z,0
2018-10-21T04:15:18.011Z,0
2018-10-21T04:16:17.510Z,0
2018-10-21T04:17:17.254Z,0
2018-10-21T04:18:18.066Z,0
2018-10-21T04:19:17.497Z,0
2018-10-21T04:20:17.730Z,0
2018-10-21T04:21:17.255Z,0
2018-10-21T04:22:17.648Z,0
2018-10-21T04:23:17.299Z,0
2018-10-21T04:24:17.867Z,0
2018-10-21T04:25:38.351Z,0
2018-10-21T04:26:38.794Z,0
2018-10-21T04:28:21.196Z,0
2018-10-21T04:29:21.583Z,0
2018-10-21T04:30:42.909Z,0
2018-10-21T04:31:43.381Z,0
2018-10-21T04:32:43.514Z,0
2018-10-21T04:34:04.275Z,0
2018-10-21T04:35:25.476Z,0
2018-10-21T04:36:25.875Z,0
2018-10-21T04:37:26.485Z,0
2018-10-21T04:38:46.951Z,0
2018-10-21T04:39:47.436Z,0
2018-10-21T04:40:47.508Z,0
2018-10-21T04:41:47.783Z,0
2018-10-21T04:42:47.186Z,0
2018-10-21T04:43:47.346Z,0
2018-10-21T04:44:47.600Z,0
2018-10-21T04:45:47.049Z,0
2018-10-21T04:46:47.293Z,0
2018-10-21T04:47:47.027Z,0
2018-10-21T04:48:47.485Z,0
2018-10-21T04:49:47.027Z,0
2018-10-21T04:50:47.307Z,0
2018-10-21T04:51:47.837Z,0
2018-10-21T04:52:47.106Z,0
2018-10-21T04:53:47.449Z,0
2018-10-21T04:54:46.819Z,0
2018-10-21T04:55:47.141Z,0
2018-10-21T04:56:47.548Z,0
2018-10-21T04:57:47.127Z,0
2018-10-21T04:58:47.560Z,0
2018-10-21T04:59:46.657Z,0
2018-10-21T05:00:47.268Z,0
2018-10-21T05:01:47.734Z,0
2018-10-21T05:02:47.088Z,0
2018-10-21T05:03:47.467Z,0
2018-10-21T05:04:46.905Z,0
2018-10-21T05:05:47.477Z,0
2018-10-21T05:06:46.645Z,0
2018-10-21T05:07:47.143Z,0
2018-10-21T05:08:47.400Z,0
2018-10-21T05:09:47.561Z,0
2018-10-21T05:10:46.951Z,0
2018-10-21T05:11:47.404Z,0
2018-10-21T05:12:47.755Z,0
2018-10-21T05:13:46.786Z,0
2018-10-21T05:14:47.097Z,0
2018-10-21T05:15:47.384Z,0
2018-10-21T05:16:47.845Z,0
2018-10-21T05:17:47.214Z,0
2018-10-21T05:18:47.558Z,0
2018-10-21T05:19:46.941Z,0
2018-10-21T05:20:47.263Z,0
2018-10-21T05:21:47.684Z,0
2018-10-21T05:22:46.728Z,0
2018-10-21T05:23:47.321Z,0
2018-10-21T05:24:47.781Z,0
2018-10-21T05:25:47.169Z,0
2018-10-21T05:26:47.421Z,0
2018-10-21T05:27:46.633Z,0
2018-10-21T05:28:46.976Z,0
2018-10-21T05:29:47.346Z,0
2018-10-21T05:30:46.901Z,0
2018-10-21T05:31:47.217Z,0
2018-10-21T05:32:47.750Z,0
2018-10-21T05:34:08.398Z,0
2018-10-21T05:35:08.712Z,0
2018-10-21T05:36:09.062Z,0
2018-10-21T05:37:08.411Z,0
2018-10-21T05:38:08.821Z,0
2018-10-21T05:39:31.030Z,0
2018-10-21T05:40:31.359Z,0
2018-10-21T05:41:52.968Z,0
2018-10-21T05:42:53.465Z,0
2018-10-21T05:44:14.688Z,0
2018-10-21T05:45:14.992Z,0
2018-10-21T05:46:15.433Z,0
2018-10-21T05:47:15.173Z,0
2018-10-21T05:48:15.832Z,0
2018-10-21T05:49:15.268Z,0
2018-10-21T05:50:36.971Z,0
2018-10-21T05:51:37.622Z,0
2018-10-21T05:52:37.081Z,0
2018-10-21T05:53:37.389Z,0
2018-10-21T05:54:59.106Z,0
2018-10-21T05:55:59.432Z,0
2018-10-21T05:56:59.820Z,0
2018-10-21T05:57:59.181Z,0
2018-10-21T05:59:20.774Z,0
2018-10-21T06:00:21.205Z,0
2018-10-21T06:01:21.700Z,1
2018-10-21T06:02:21.181Z,1
2018-10-21T06:03:21.620Z,1
2018-10-21T06:04:21.030Z,1
2018-10-21T06:05:21.293Z,1
2018-10-21T06:06:21.651Z,1
2018-10-21T06:07:21.188Z,1
2018-10-21T06:08:21.532Z,1
2018-10-21T06:09:42.329Z,1
2018-10-21T06:11:03.806Z,1
2018-10-21T06:12:04.349Z,2
2018-10-21T06:13:25.075Z,2
2018-10-21T06:14:25.342Z,2
2018-10-21T06:15:25.777Z,2
2018-10-21T06:16:25.483Z,2
2018-10-21T06:17:26.073Z,2
2018-10-21T06:18:25.657Z,2
2018-10-21T06:19:25.291Z,3
2018-10-21T06:20:25.942Z,3
2018-10-21T06:21:25.527Z,3
2018-10-21T06:22:26.141Z,3
2018-10-21T06:23:46.843Z,4
2018-10-21T06:24:47.364Z,4
2018-10-21T06:25:46.851Z,4
2018-10-21T06:26:47.483Z,4
2018-10-21T06:27:47.010Z,4
2018-10-21T06:28:47.591Z,5
2018-10-21T06:29:46.940Z,5
2018-10-21T06:31:08.964Z,5
2018-10-21T06:32:09.565Z,5
2018-10-21T06:33:30.490Z,6
2018-10-21T06:34:31.047Z,6
2018-10-21T06:35:30.752Z,6
2018-10-21T06:36:30.945Z,7
2018-10-21T06:37:30.638Z,7
2018-10-21T06:38:31.305Z,7
2018-10-21T06:39:30.925Z,8
2018-10-21T06:40:30.432Z,9
2018-10-21T06:41:31.135Z,9
2018-10-21T06:42:30.658Z,10
2018-10-21T06:43:30.211Z,11
2018-10-21T06:44:52.401Z,11
2018-10-21T06:45:53.112Z,12
2018-10-21T06:46:52.620Z,13
2018-10-21T06:47:53.112Z,13
2018-10-21T06:49:14.093Z,14
2018-10-21T06:50:14.760Z,15
2018-10-21T06:51:14.613Z,15
2018-10-21T06:52:14.336Z,16
2018-10-21T06:53:14.865Z,16
2018-10-21T06:54:14.490Z,17
2018-10-21T06:55:14.977Z,18
2018-10-21T06:56:14.562Z,19
2018-10-21T06:57:14.480Z,20
2018-10-21T06:58:14.252Z,21
2018-10-21T06:59:15.029Z,22
2018-10-21T07:00:36.021Z,22
2018-10-21T07:01:36.402Z,22
2018-10-21T07:02:36.875Z,23
2018-10-21T07:03:36.366Z,23
2018-10-21T07:04:36.198Z,23
2018-10-21T07:05:35.813Z,23
2018-10-21T07:06:36.433Z,24
2018-10-21T07:08:42.488Z,24
2018-10-21T07:09:43.130Z,24
2018-10-21T07:10:44.918Z,25
2018-10-21T07:11:42.661Z,25
2018-10-21T07:12:43.323Z,25
2018-10-21T07:13:42.926Z,26
2018-10-21T07:14:42.741Z,27
2018-10-21T07:15:43.564Z,27
2018-10-21T07:16:43.344Z,28
2018-10-21T07:17:43.272Z,29
2018-10-21T07:18:42.894Z,30
2018-10-21T07:19:42.474Z,30
2018-10-21T07:20:43.244Z,30
2018-10-21T07:21:42.673Z,31
2018-10-21T07:22:43.452Z,30
2018-10-21T07:23:43.247Z,30
2018-10-21T07:24:42.918Z,31
2018-10-21T07:25:43.287Z,31
2018-10-21T07:26:42.865Z,31
2018-10-21T07:27:42.641Z,31
2018-10-21T07:28:42.456Z,31
2018-10-21T07:30:04.538Z,31
2018-10-21T07:31:27.193Z,32
2018-10-21T07:32:26.946Z,32
2018-10-21T07:33:27.486Z,33
2018-10-21T07:34:27.052Z,33
2018-10-21T07:35:49.318Z,34
2018-10-21T07:36:50.174Z,34
2018-10-21T07:37:49.815Z,34
2018-10-21T07:38:49.328Z,35
2018-10-21T07:39:49.980Z,35
2018-10-21T07:40:49.617Z,36
2018-10-21T07:42:10.889Z,36
2018-10-21T07:43:11.608Z,38
2018-10-21T07:44:11.400Z,39
2018-10-21T07:45:59.403Z,40
2018-10-21T07:47:00.175Z,41
2018-10-21T07:47:59.685Z,41
2018-10-21T07:48:59.420Z,41
2018-10-21T07:50:00.187Z,41
2018-10-21T07:50:59.955Z,41
2018-10-21T07:51:59.869Z,41
2018-10-21T07:52:59.631Z,41
2018-10-21T07:53:59.448Z,40
2018-10-21T07:55:00.061Z,40
2018-10-21T07:56:21.332Z,39
2018-10-21T07:57:21.994Z,39
2018-10-21T07:58:21.734Z,40
2018-10-21T07:59:21.499Z,40
2018-10-21T08:00:22.200Z,40
2018-10-21T08:01:22.061Z,41
2018-10-21T08:02:21.972Z,41
2018-10-21T08:03:21.730Z,42
2018-10-21T08:04:21.451Z,43
2018-10-21T08:05:43.595Z,44
2018-10-21T08:07:05.310Z,45
2018-10-21T08:08:05.811Z,45
2018-10-21T08:09:05.679Z,45
2018-10-21T08:10:05.321Z,45
2018-10-21T08:11:05.718Z,45
2018-10-21T08:12:05.347Z,46
2018-10-21T08:13:06.305Z,46
2018-10-21T08:14:05.948Z,46
2018-10-21T08:15:05.788Z,47
2018-10-21T08:16:05.282Z,46
2018-10-21T08:17:06.056Z,46
2018-10-21T08:18:27.216Z,47
2018-10-21T08:19:28.058Z,48
2018-10-21T08:20:27.944Z,49
2018-10-21T08:21:27.532Z,49
2018-10-21T08:22:27.252Z,50
2018-10-21T08:23:27.812Z,51
2018-10-21T08:24:27.787Z,51
2018-10-21T08:25:27.444Z,52
2018-10-21T08:26:28.191Z,54
2018-10-21T08:27:27.772Z,54
2018-10-21T08:28:49.239Z,56
2018-10-21T08:29:48.820Z,57
2018-10-21T08:30:49.593Z,59
2018-10-21T08:31:50.252Z,60
2018-10-21T08:32:48.973Z,60
2018-10-21T08:33:50.001Z,60
2018-10-21T08:34:49.829Z,60
2018-10-21T08:35:49.570Z,61
2018-10-21T08:36:49.495Z,63
2018-10-21T08:37:49.707Z,64
2018-10-21T08:38:49.331Z,65
2018-10-21T08:39:49.040Z,66
2018-10-21T08:40:50.511Z,68
2018-10-21T08:41:49.178Z,69
2018-10-21T08:42:49.705Z,70
2018-10-21T08:43:49.203Z,72
2018-10-21T08:44:49.737Z,73
2018-10-21T08:45:50.543Z,75
2018-10-21T08:46:49.804Z,76
2018-10-21T08:47:50.629Z,77
2018-10-21T08:48:49.427Z,79
2018-10-21T08:50:13.011Z,80
2018-10-21T08:51:14.156Z,80
2018-10-21T08:52:13.743Z,80
2018-10-21T08:53:37.049Z,79
2018-10-21T08:54:35.760Z,79
2018-10-21T08:55:35.676Z,81
2018-10-21T08:56:35.356Z,83
2018-10-21T08:57:35.221Z,86
2018-10-21T08:58:35.141Z,89
2018-10-21T08:59:35.753Z,92
2018-10-21T09:00:35.644Z,94
2018-10-21T09:01:35.813Z,96
2018-10-21T09:02:35.709Z,98
2018-10-21T09:03:35.532Z,99
2018-10-21T09:04:35.378Z,101
2018-10-21T09:05:35.008Z,102
2018-10-21T09:06:35.937Z,101
2018-10-21T09:07:57.627Z,101
2018-10-21T09:08:58.197Z,102
2018-10-21T09:09:58.239Z,104
2018-10-21T09:10:58.114Z,106
2018-10-21T09:11:58.089Z,107
2018-10-21T09:12:57.868Z,108
2018-10-21T09:13:57.651Z,109
2018-10-21T09:14:58.496Z,109
2018-10-21T09:15:58.352Z,110
2018-10-21T09:16:58.051Z,107
2018-10-21T09:17:57.934Z,107
2018-10-21T09:18:57.797Z,107
2018-10-21T09:19:58.469Z,107
2018-10-21T09:20:58.344Z,107
2018-10-21T09:21:57.900Z,107
2018-10-21T09:22:57.689Z,106
2018-10-21T09:23:57.599Z,105
2018-10-21T09:24:57.639Z,105
2018-10-21T09:25:58.430Z,105
2018-10-21T09:27:21.995Z,105
2018-10-21T09:28:22.014Z,105
2018-10-21T09:29:22.696Z,104
2018-10-21T09:30:22.727Z,103
2018-10-21T09:31:44.073Z,103
2018-10-21T09:32:44.770Z,103
2018-10-21T09:33:44.335Z,104
2018-10-21T09:34:45.917Z,105
2018-10-21T09:35:45.417Z,107
2018-10-21T09:37:10.540Z,110
2018-10-21T09:38:11.377Z,114
2018-10-21T09:39:11.012Z,116
2018-10-21T09:40:10.046Z,119
2018-10-21T09:41:31.595Z,125
2018-10-21T09:42:31.619Z,128
2018-10-21T09:43:32.715Z,129
2018-10-21T09:44:31.594Z,131
2018-10-21T09:45:32.423Z,132
2018-10-21T09:46:32.038Z,134
2018-10-21T09:47:31.825Z,138
2018-10-21T09:48:31.876Z,140
2018-10-21T09:49:31.695Z,143
2018-10-21T09:50:31.688Z,144
2018-10-21T09:51:31.455Z,144
2018-10-21T09:52:32.289Z,144
2018-10-21T09:53:32.123Z,144
2018-10-21T09:54:32.095Z,144
2018-10-21T09:55:32.107Z,145
2018-10-21T09:56:31.791Z,145
2018-10-21T09:57:31.865Z,145
2018-10-21T09:58:31.880Z,148
2018-10-21T09:59:31.623Z,155
2018-10-21T10:00:31.657Z,170
2018-10-21T10:01:54.193Z,286
2018-10-21T10:02:55.007Z,254
2018-10-21T10:03:55.088Z,208
2018-10-21T10:05:17.314Z,206
2018-10-21T10:06:17.177Z,182
2018-10-21T10:07:40.857Z,160
2018-10-21T10:08:40.877Z,153
2018-10-21T10:09:41.729Z,159
2018-10-21T10:11:05.154Z,175
2018-10-21T10:12:05.095Z,171
2018-10-21T10:13:05.974Z,174
2018-10-21T10:14:05.832Z,194
2018-10-21T10:15:05.768Z,242
2018-10-21T10:16:05.946Z,229
2018-10-21T10:17:05.984Z,197
2018-10-21T10:18:05.887Z,171
2018-10-21T10:19:05.881Z,163
2018-10-21T10:20:27.562Z,164
2018-10-21T10:21:28.300Z,161
2018-10-21T10:22:28.065Z,159
2018-10-21T10:23:27.943Z,154
2018-10-21T10:24:27.763Z,150
2018-10-21T10:25:28.371Z,163
2018-10-21T10:26:28.368Z,188
2018-10-21T10:27:28.546Z,211
2018-10-21T10:28:28.400Z,200
2018-10-21T10:29:50.457Z,189
2018-10-21T10:30:50.151Z,182
2018-10-21T10:31:50.115Z,221
2018-10-21T10:32:49.913Z,288
2018-10-21T10:33:50.655Z,309
2018-10-21T10:34:50.343Z,314
2018-10-21T10:35:49.966Z,266
2018-10-21T10:37:33.350Z,283
2018-10-21T10:38:56.797Z,297
2018-10-21T10:39:57.683Z,299
2018-10-21T10:40:57.733Z,350
2018-10-21T10:41:58.088Z,348
2018-10-21T10:42:57.114Z,342
2018-10-21T10:43:56.833Z,277
2018-10-21T10:44:57.755Z,258
2018-10-21T10:45:58.051Z,251
2018-10-21T10:46:56.883Z,277
2018-10-21T10:47:57.712Z,238
2018-10-21T10:48:57.820Z,216
2018-10-21T10:49:57.639Z,215
2018-10-21T10:50:57.539Z,212
2018-10-21T10:51:57.772Z,219
2018-10-21T10:53:41.451Z,228
2018-10-21T10:54:41.800Z,227
2018-10-21T10:55:41.833Z,235
2018-10-21T10:56:41.679Z,244
2018-10-21T10:57:41.742Z,289
2018-10-21T10:58:41.880Z,349
2018-10-21T10:59:41.740Z,308
2018-10-21T11:00:41.797Z,297
2018-10-21T11:01:41.655Z,305
2018-10-21T11:02:41.519Z,287
2018-10-21T11:03:41.384Z,265
2018-10-21T11:04:41.440Z,233
2018-10-21T11:05:41.391Z,221
2018-10-21T11:06:41.368Z,222
2018-10-21T11:07:41.304Z,220
2018-10-21T11:08:41.454Z,223
2018-10-21T11:09:41.365Z,230
2018-10-21T11:10:41.170Z,241
2018-10-21T11:11:41.022Z,343
2018-10-21T11:12:41.737Z,309
2018-10-21T11:13:41.685Z,310
2018-10-21T11:14:42.683Z,281
2018-10-21T11:16:05.396Z,303
2018-10-21T11:17:05.512Z,310
2018-10-21T11:18:06.308Z,320
2018-10-21T11:19:06.545Z,342
2018-10-21T11:20:28.889Z,349
2018-10-21T11:21:29.850Z,331
2018-10-21T11:22:29.910Z,273
2018-10-21T11:23:51.305Z,254
2018-10-21T11:25:16.214Z,259
2018-10-21T11:26:17.016Z,270
2018-10-21T11:27:17.269Z,262
2018-10-21T11:28:17.119Z,246
2018-10-21T11:29:16.378Z,243
2018-10-21T11:30:16.152Z,244
2018-10-21T11:31:16.440Z,286
2018-10-21T11:32:16.678Z,252
2018-10-21T11:33:16.757Z,261
2018-10-21T11:34:40.373Z,280
2018-10-21T11:35:41.214Z,264
2018-10-21T11:36:41.202Z,248
2018-10-21T11:37:41.094Z,236
2018-10-21T11:38:41.301Z,220
2018-10-21T11:39:41.240Z,220
2018-10-21T11:41:50.154Z,237
2018-10-21T11:43:12.937Z,230
2018-10-21T11:44:12.882Z,248
2018-10-21T11:45:13.535Z,257
2018-10-21T11:46:13.415Z,290
2018-10-21T11:47:13.424Z,237
2018-10-21T11:48:13.368Z,233
2018-10-21T11:49:13.472Z,228
2018-10-21T11:50:13.526Z,247
2018-10-21T11:51:13.545Z,250
2018-10-21T11:52:13.768Z,302
2018-10-21T11:53:14.184Z,335
2018-10-21T11:54:12.897Z,367
2018-10-21T11:55:12.828Z,370
2018-10-21T11:56:12.797Z,410
2018-10-21T11:57:59.284Z,366
2018-10-21T11:59:00.143Z,310
2018-10-21T12:00:21.736Z,302
2018-10-21T12:01:22.658Z,265
2018-10-21T12:02:22.854Z,269
2018-10-21T12:03:22.547Z,287
2018-10-21T12:04:22.624Z,295
2018-10-21T12:05:22.680Z,292
2018-10-21T12:06:22.467Z,261
2018-10-21T12:07:22.396Z,326
2018-10-21T12:08:22.400Z,315
2018-10-21T12:09:22.128Z,383
2018-10-21T12:10:22.284Z,398
2018-10-21T12:11:22.067Z,460
2018-10-21T12:12:22.137Z,414
2018-10-21T12:13:22.192Z,356
2018-10-21T12:14:21.930Z,261
2018-10-21T12:15:21.628Z,265
2018-10-21T12:16:22.667Z,252
2018-10-21T12:17:22.599Z,249
2018-10-21T12:18:18.378Z,224
2018-10-21T12:19:20.104Z,222
2018-10-21T12:20:19.259Z,219
2018-10-21T12:21:19.036Z,206
2018-10-21T12:22:42.810Z,202
2018-10-21T12:23:43.875Z,187
2018-10-21T12:24:42.927Z,184
2018-10-21T12:25:43.073Z,184
2018-10-21T12:26:42.695Z,184
2018-10-21T12:27:44.103Z,182
2018-10-21T12:28:42.894Z,181
2018-10-21T12:29:43.092Z,183
2018-10-21T12:31:29.531Z,187
2018-10-21T12:32:29.199Z,181
2018-10-21T12:33:29.928Z,183
2018-10-21T12:34:29.865Z,181
2018-10-21T12:35:29.880Z,179
2018-10-21T12:36:30.076Z,179
2018-10-21T12:37:29.901Z,178
2018-10-21T12:38:29.847Z,177
2018-10-21T12:39:29.671Z,178
2018-10-21T12:40:29.685Z,179
2018-10-21T12:41:29.765Z,184
2018-10-21T12:42:29.986Z,183
2018-10-21T12:43:29.802Z,186
2018-10-21T12:44:51.878Z,191
2018-10-21T12:45:52.063Z,206
2018-10-21T12:46:52.165Z,216
2018-10-21T12:47:52.673Z,214
2018-10-21T12:48:51.883Z,208
2018-10-21T12:49:51.796Z,245
2018-10-21T12:50:51.733Z,322
2018-10-21T12:51:51.918Z,262
2018-10-21T12:52:51.632Z,262
2018-10-21T12:53:51.542Z,333
2018-10-21T12:54:51.224Z,345
2018-10-21T12:55:52.030Z,306
2018-10-21T12:56:52.019Z,358
2018-10-21T12:58:13.762Z,363
2018-10-21T12:59:13.770Z,350
2018-10-21T13:00:13.607Z,318
2018-10-21T13:01:13.736Z,312
2018-10-21T13:02:14.093Z,308
2018-10-21T13:03:14.134Z,296
2018-10-21T13:04:13.989Z,284
2018-10-21T13:05:35.803Z,278
2018-10-21T13:06:36.907Z,302
2018-10-21T13:07:35.671Z,304
2018-10-21T13:08:36.688Z,311
2018-10-21T13:09:35.686Z,305
2018-10-21T13:10:35.369Z,259
2018-10-21T13:11:36.010Z,238
2018-10-21T13:12:36.458Z,236
2018-10-21T13:13:59.891Z,276
2018-10-21T13:14:59.621Z,274
2018-10-21T13:16:20.763Z,245
2018-10-21T13:17:21.591Z,228
2018-10-21T13:18:21.565Z,228
2018-10-21T13:19:21.537Z,242
2018-10-21T13:20:21.410Z,224
2018-10-21T13:21:42.605Z,222
2018-10-21T13:22:43.684Z,226
2018-10-21T13:23:43.630Z,237
2018-10-21T13:24:43.453Z,247
2018-10-21T13:25:43.305Z,228
2018-10-21T13:26:43.255Z,233
2018-10-21T13:27:43.251Z,237
2018-10-21T13:28:42.900Z,211
2018-10-21T13:29:42.921Z,211
2018-10-21T13:30:43.227Z,216
2018-10-21T13:32:31.350Z,232
2018-10-21T13:33:31.583Z,224
2018-10-21T13:34:31.701Z,224
2018-10-21T13:35:31.650Z,233
2018-10-21T13:36:55.700Z,230
2018-10-21T13:37:56.696Z,229
2018-10-21T13:38:56.565Z,230
2018-10-21T13:40:19.920Z,223
2018-10-21T13:41:44.471Z,208
2018-10-21T13:42:45.327Z,194
2018-10-21T13:43:45.096Z,192
2018-10-21T13:44:44.984Z,200
2018-10-21T13:45:44.753Z,192
2018-10-21T13:46:44.557Z,188
2018-10-21T13:47:45.366Z,177
2018-10-21T13:49:08.829Z,189
2018-10-21T13:50:33.938Z,199
2018-10-21T13:51:34.980Z,193
2018-10-21T13:52:57.781Z,171
2018-10-21T13:53:58.491Z,166
2018-10-21T13:54:58.382Z,168
2018-10-21T13:55:58.301Z,177
2018-10-21T13:56:58.772Z,197
2018-10-21T13:57:58.639Z,190
2018-10-21T13:59:19.709Z,190
2018-10-21T14:00:42.017Z,181
2018-10-21T14:01:42.168Z,128
2018-10-21T14:03:03.266Z,67
2018-10-21T14:04:04.191Z,55
2018-10-21T14:05:26.978Z,53
2018-10-21T14:06:27.799Z,51
2018-10-21T14:07:48.613Z,49
2018-10-21T14:08:49.142Z,49
2018-10-21T14:10:11.090Z,49
2018-10-21T14:11:12.075Z,49
2018-10-21T14:12:56.891Z,50
2018-10-21T14:13:56.625Z,51
2018-10-21T14:14:57.281Z,51
2018-10-21T14:15:57.051Z,50
2018-10-21T14:16:58.047Z,53
2018-10-21T14:18:19.789Z,64
2018-10-21T14:19:20.515Z,54
2018-10-21T14:20:20.037Z,53
2018-10-21T14:21:19.838Z,54
2018-10-21T14:22:20.581Z,54
2018-10-21T14:23:20.496Z,55
2018-10-21T14:24:20.087Z,64
2018-10-21T14:25:43.018Z,65
2018-10-21T14:26:43.575Z,90
2018-10-21T14:28:04.504Z,196
2018-10-21T14:29:05.222Z,154
2018-10-21T14:30:05.129Z,120
2018-10-21T14:31:05.128Z,159
2018-10-21T14:32:04.998Z,158
2018-10-21T14:33:04.671Z,146
2018-10-21T14:34:10.448Z,134
2018-10-21T14:35:28.347Z,127
2018-10-21T14:36:28.925Z,117
2018-10-21T14:37:28.497Z,106
2018-10-21T14:38:29.260Z,99
2018-10-21T14:39:29.187Z,89
2018-10-21T14:40:49.953Z,77
2018-10-21T14:42:14.007Z,66
2018-10-21T14:43:14.756Z,57
2018-10-21T14:45:00.863Z,58
2018-10-21T14:46:01.897Z,63
2018-10-21T14:47:24.980Z,63
2018-10-21T14:48:25.429Z,59
2018-10-21T14:49:25.232Z,60
2018-10-21T14:50:25.906Z,54
2018-10-21T14:51:25.723Z,56
2018-10-21T14:52:49.029Z,55
2018-10-21T14:53:49.769Z,54
2018-10-21T14:54:49.446Z,53
2018-10-21T14:56:34.699Z,49
2018-10-21T14:57:34.247Z,48
2018-10-21T14:58:34.874Z,48
2018-10-21T14:59:34.505Z,51
2018-10-21T15:00:35.395Z,52
2018-10-21T15:02:17.394Z,50
2018-10-21T15:03:17.009Z,53
2018-10-21T15:04:18.216Z,54
2018-10-21T15:05:17.017Z,51
2018-10-21T15:06:18.003Z,51
2018-10-21T15:07:16.779Z,53
2018-10-21T15:08:17.860Z,56
2018-10-21T15:09:17.665Z,62
2018-10-21T15:10:17.315Z,55
2018-10-21T15:11:17.700Z,53
2018-10-21T15:12:38.688Z,57
2018-10-21T15:14:00.579Z,59
2018-10-21T15:15:01.170Z,61
2018-10-21T15:16:00.860Z,65
2018-10-21T15:18:08.764Z,55
2018-10-21T15:19:31.088Z,55
2018-10-21T15:20:31.766Z,58
2018-10-21T15:21:31.592Z,57
2018-10-21T15:22:31.255Z,54